Time;durP1;ratioP1;P1;durP2;ratioP2;P2;SDS_P1;SDS_P2;PMS_P1;PMS_P2;Temp;Humidity;BMP_temperature;BMP_pressure;BME280_temperature;BME280_humidity;BME280_pressure;Samples;Min_cycle;Max_cycle;Signal;HPM_P1;HPM_P2
2023/10/15 00:00:50;;;;;;;3.90;1.87;;;8.40;99.90;;;;;;4936168;29;20212;-30
2023/10/15 00:03:16;;;;;;;7.63;1.97;;;8.30;99.90;;;;;;4931209;29;20186;-31
2023/10/15 00:05:43;;;;;;;5.80;2.93;;;8.30;99.90;;;;;;4924740;29;20244;-31
2023/10/15 00:08:09;;;;;;;7.57;2.23;;;8.20;99.90;;;;;;4923697;29;20217;-31
2023/10/15 00:10:36;;;;;;;2.67;2.07;;;8.10;99.90;;;;;;4941933;29;20273;-31
2023/10/15 00:13:04;;;;;;;4.43;1.93;;;8.10;99.90;;;;;;4926325;29;20181;-31
2023/10/15 00:15:30;;;;;;;4.30;1.90;;;8.00;99.90;;;;;;4919718;28;20211;-31
2023/10/15 00:18:01;;;;;;;4.73;1.80;;;8.00;99.90;;;;;;4938092;29;20185;-31
2023/10/15 00:20:31;;;;;;;4.27;2.00;;;8.10;99.90;;;;;;4935360;29;20233;-31
2023/10/15 00:23:05;;;;;;;4.50;2.20;;;8.20;99.90;;;;;;4938771;29;20196;-31
2023/10/15 00:25:41;;;;;;;6.67;1.90;;;8.30;99.90;;;;;;4939326;29;20202;-31
2023/10/15 00:28:11;;;;;;;5.20;3.23;;;8.40;99.90;;;;;;4922867;29;20177;-31
2023/10/15 00:30:38;;;;;;;4.63;2.10;;;8.50;99.90;;;;;;4938891;29;20185;-31
2023/10/15 00:33:07;;;;;;;4.57;1.70;;;8.50;99.90;;;;;;4938911;29;20192;-31
2023/10/15 00:35:33;;;;;;;3.00;1.53;;;8.50;99.90;;;;;;4938798;29;20758;-31
2023/10/15 00:38:07;;;;;;;4.17;1.63;;;8.60;99.90;;;;;;4906238;29;20182;-31
2023/10/15 00:40:41;;;;;;;3.20;1.50;;;8.70;99.90;;;;;;4938899;29;20213;-31
2023/10/15 00:43:07;;;;;;;2.63;1.50;;;8.70;99.90;;;;;;4938734;29;20181;-31
2023/10/15 00:45:39;;;;;;;5.23;1.83;;;8.70;99.90;;;;;;4935856;29;20237;-31
2023/10/15 00:50:41;;;;;;;3.50;1.80;;;8.90;99.90;;;;;;4971117;28;20216;-31
2023/10/15 00:53:22;;;;;;;3.50;1.40;;;8.90;99.90;;;;;;4938207;29;20180;-31
2023/10/15 00:55:53;;;;;;;6.60;1.97;;;8.90;99.90;;;;;;4938887;29;20205;-31
2023/10/15 00:58:39;;;;;;;3.30;1.47;;;8.90;99.90;;;;;;4938748;29;20185;-31
2023/10/15 01:03:53;;;;;;;3.20;1.33;;;8.80;99.90;;;;;;4938706;29;20201;-31
2023/10/15 01:09:10;;;;;;;4.13;1.57;;;8.70;99.90;;;;;;4921388;29;20181;-31
2023/10/15 01:11:44;;;;;;;2.67;1.50;;;8.70;99.90;;;;;;4918248;29;20330;-31
2023/10/15 01:14:11;;;;;;;2.20;1.40;;;8.70;99.90;;;;;;4938500;29;20178;-31
2023/10/15 01:16:38;;;;;;;4.40;1.60;;;8.70;99.90;;;;;;4938055;29;20237;-31
2023/10/15 01:21:57;;;;;;;3.07;1.80;;;8.70;99.90;;;;;;4969824;28;20209;-31
2023/10/15 01:24:27;;;;;;;4.27;1.63;;;8.70;99.90;;;;;;4938345;29;20197;-31
2023/10/15 01:29:33;;;;;;;5.07;1.77;;;8.70;99.90;;;;;;4937926;29;20196;-31
2023/10/15 01:32:03;;;;;;;3.17;1.70;;;8.70;99.90;;;;;;4937788;29;20193;-32
2023/10/15 01:34:31;;;;;;;3.83;1.70;;;8.70;99.90;;;;;;4936535;29;20189;-32
2023/10/15 01:36:57;;;;;;;4.00;1.80;;;8.70;99.90;;;;;;4927159;29;20209;-32
2023/10/15 01:39:37;;;;;;;3.33;1.23;;;8.70;99.90;;;;;;4931690;29;20205;-31
2023/10/15 01:42:06;;;;;;;4.53;1.53;;;8.70;99.90;;;;;;4937676;29;20208;-32
2023/10/15 01:44:39;;;;;;;4.27;1.50;;;8.80;99.90;;;;;;4935870;29;20188;-32
2023/10/15 01:49:31;;;;;;;4.60;1.70;;;8.80;99.90;;;;;;4969938;28;20217;-32
2023/10/15 01:52:09;;;;;;;2.60;1.53;;;8.80;99.90;;;;;;4928304;29;20196;-32
2023/10/15 01:54:36;;;;;;;4.40;1.80;;;8.70;99.90;;;;;;4937749;29;20192;-32
2023/10/15 01:57:15;;;;;;;5.00;1.70;;;8.70;99.90;;;;;;4936451;29;20299;-31
2023/10/15 02:00:03;;;;;;;5.30;1.63;;;8.70;99.90;;;;;;4932955;29;20218;-32
2023/10/15 02:02:29;;;;;;;2.10;1.30;;;8.70;99.90;;;;;;4948967;29;20229;-32
2023/10/15 02:04:57;;;;;;;3.13;1.47;;;8.70;99.90;;;;;;4937712;29;20178;-32
2023/10/15 02:07:24;;;;;;;4.50;1.73;;;8.80;99.90;;;;;;4922866;29;20213;-31
2023/10/15 02:09:51;;;;;;;4.10;1.67;;;8.80;99.90;;;;;;4926564;29;20240;-31
2023/10/15 02:12:18;;;;;;;3.13;1.60;;;8.80;99.90;;;;;;4937443;29;20177;-32
2023/10/15 02:14:47;;;;;;;5.27;1.97;;;8.80;99.90;;;;;;4937218;29;20178;-32
2023/10/15 02:17:23;;;;;;;2.40;1.53;;;8.80;99.90;;;;;;4936817;29;20198;-32
2023/10/15 02:19:50;;;;;;;2.20;1.50;;;8.90;99.90;;;;;;4937785;29;20181;-32
2023/10/15 02:22:16;;;;;;;2.30;1.50;;;8.90;99.90;;;;;;4937002;29;20205;-32
2023/10/15 02:24:48;;;;;;;2.40;1.50;;;8.90;99.90;;;;;;4937155;29;20189;-32
2023/10/15 02:27:25;;;;;;;4.70;1.53;;;8.90;99.90;;;;;;4936158;29;20293;-32
2023/10/15 02:29:55;;;;;;;5.13;1.83;;;9.00;99.90;;;;;;4933746;29;20259;-32
2023/10/15 02:32:27;;;;;;;5.47;1.87;;;9.00;99.90;;;;;;4937097;29;20185;-32
2023/10/15 02:34:54;;;;;;;2.60;1.40;;;8.90;99.90;;;;;;4936264;29;20185;-32
2023/10/15 02:37:27;;;;;;;4.53;1.57;;;8.90;99.90;;;;;;4922949;29;20202;-32
2023/10/15 02:39:57;;;;;;;4.73;1.70;;;8.80;99.90;;;;;;4924718;29;20252;-32
2023/10/15 02:42:34;;;;;;;4.03;1.57;;;8.90;99.90;;;;;;4936677;29;20224;-32
2023/10/15 02:45:01;;;;;;;2.90;1.73;;;8.90;99.90;;;;;;4936175;29;20185;-32
2023/10/15 02:47:48;;;;;;;3.73;1.50;;;8.90;99.90;;;;;;4936587;29;20292;-32
2023/10/15 02:50:18;;;;;;;3.23;1.43;;;8.90;99.90;;;;;;4929261;29;20181;-32
2023/10/15 02:52:46;;;;;;;4.47;1.50;;;8.90;99.90;;;;;;4935372;29;20190;-32
2023/10/15 02:55:14;;;;;;;2.90;1.67;;;8.90;99.90;;;;;;4928594;29;20276;-31
2023/10/15 02:57:44;;;;;;;5.10;1.70;;;8.80;99.90;;;;;;4936748;29;20325;-31
2023/10/15 03:00:28;;;;;;;4.90;1.87;;;8.80;99.90;;;;;;4936279;29;20201;-31
2023/10/15 03:03:06;;;;;;;4.60;1.80;;;8.80;99.90;;;;;;4936590;29;20188;-32
2023/10/15 03:05:38;;;;;;;5.23;1.70;;;8.90;99.90;;;;;;4936066;29;20220;-31
2023/10/15 03:08:05;;;;;;;2.63;1.50;;;8.90;99.90;;;;;;4915250;29;20182;-32
2023/10/15 03:10:45;;;;;;;5.77;2.00;;;8.90;99.90;;;;;;4930173;29;20189;-32
2023/10/15 03:13:14;;;;;;;3.23;1.60;;;8.90;99.90;;;;;;4936175;29;20267;-31
2023/10/15 03:15:48;;;;;;;1.60;1.40;;;8.90;99.90;;;;;;4936297;29;20392;-32
2023/10/15 03:18:24;;;;;;;3.70;1.97;;;8.90;99.90;;;;;;4936216;29;20649;-31
2023/10/15 03:23:36;;;;;;;2.83;1.70;;;8.90;99.90;;;;;;4958498;28;20244;-32
2023/10/15 03:26:02;;;;;;;3.90;1.60;;;9.00;99.90;;;;;;4935899;29;20208;-31
2023/10/15 03:28:28;;;;;;;2.97;1.53;;;9.00;99.90;;;;;;4920157;29;20188;-32
2023/10/15 03:30:57;;;;;;;7.17;2.40;;;9.00;99.90;;;;;;4936059;29;20196;-32
2023/10/15 03:33:23;;;;;;;2.93;1.70;;;9.00;99.90;;;;;;4936273;29;20184;-31
2023/10/15 03:35:55;;;;;;;1.97;1.30;;;8.90;99.90;;;;;;4934075;29;20213;-31
2023/10/15 03:38:32;;;;;;;3.47;1.50;;;8.90;99.90;;;;;;4900908;29;20277;-31
2023/10/15 03:41:21;;;;;;;4.17;1.70;;;9.00;99.90;;;;;;4925567;29;20216;-31
2023/10/15 03:43:48;;;;;;;5.63;2.60;;;8.90;99.90;;;;;;4935846;29;20181;-31
2023/10/15 03:46:20;;;;;;;3.40;2.00;;;9.00;99.90;;;;;;4925620;29;20239;-32
2023/10/15 03:48:50;;;;;;;3.03;1.60;;;9.00;99.90;;;;;;4935517;29;20256;-31
2023/10/15 03:51:27;;;;;;;2.57;1.90;;;8.90;99.90;;;;;;4927929;29;20272;-31
2023/10/15 03:53:53;;;;;;;3.30;1.60;;;8.80;99.90;;;;;;4953308;29;20192;-32
2023/10/15 03:56:27;;;;;;;5.83;2.07;;;8.70;99.90;;;;;;4935684;29;20220;-32
2023/10/15 03:58:53;;;;;;;4.50;1.80;;;8.70;99.90;;;;;;4935427;29;20195;-32
2023/10/15 04:01:20;;;;;;;4.47;1.40;;;8.70;99.90;;;;;;4935514;29;20213;-32
2023/10/15 04:03:49;;;;;;;4.83;1.57;;;8.70;99.90;;;;;;4935906;29;20236;-31
2023/10/15 04:06:17;;;;;;;3.53;1.63;;;8.70;99.90;;;;;;4930239;29;20217;-31
2023/10/15 04:09:08;;;;;;;1.93;1.40;;;8.70;99.90;;;;;;4916485;29;20182;-32
2023/10/15 04:11:43;;;;;;;2.30;1.47;;;8.80;99.90;;;;;;4935012;29;20193;-32
2023/10/15 04:14:16;;;;;;;7.07;1.77;;;8.80;99.90;;;;;;4935772;29;20196;-32
2023/10/15 04:16:43;;;;;;;2.73;1.40;;;8.90;99.90;;;;;;4935420;29;20260;-32
2023/10/15 04:19:10;;;;;;;5.40;1.70;;;8.80;99.90;;;;;;4927379;29;20240;-32
2023/10/15 04:21:39;;;;;;;3.13;1.60;;;8.90;99.90;;;;;;4935090;29;20300;-31
2023/10/15 04:24:09;;;;;;;4.93;1.83;;;8.90;99.90;;;;;;4935596;29;20209;-31
2023/10/15 04:26:40;;;;;;;2.57;1.27;;;8.90;99.90;;;;;;4952713;29;20202;-31
2023/10/15 04:29:16;;;;;;;4.63;1.50;;;9.00;99.90;;;;;;4951823;29;20190;-31
2023/10/15 04:32:00;;;;;;;4.13;1.40;;;9.00;99.90;;;;;;4940207;29;20185;-32
2023/10/15 04:34:31;;;;;;;2.03;1.40;;;9.00;99.90;;;;;;4935789;29;20189;-31
2023/10/15 04:36:57;;;;;;;4.00;1.70;;;9.00;99.90;;;;;;4923525;29;20214;-31
2023/10/15 04:39:23;;;;;;;3.20;1.70;;;9.00;99.90;;;;;;4927432;29;20291;-31
2023/10/15 04:41:49;;;;;;;3.30;1.67;;;9.10;99.90;;;;;;4935326;29;20212;-31
2023/10/15 04:44:31;;;;;;;3.83;1.60;;;9.10;99.90;;;;;;4935197;29;20189;-32
2023/10/15 04:47:08;;;;;;;3.53;1.43;;;9.10;99.90;;;;;;4911530;29;20236;-32
2023/10/15 04:49:34;;;;;;;3.43;1.63;;;9.10;99.90;;;;;;4935544;29;20239;-32
2023/10/15 04:52:00;;;;;;;6.10;1.70;;;9.10;99.90;;;;;;4935323;29;20245;-32
2023/10/15 04:54:26;;;;;;;2.53;1.40;;;9.10;99.90;;;;;;4935451;29;20204;-32
2023/10/15 04:56:54;;;;;;;3.47;1.50;;;9.00;99.90;;;;;;4934919;29;20288;-32
2023/10/15 04:59:20;;;;;;;2.80;1.90;;;9.00;99.90;;;;;;4935297;29;20190;-32
2023/10/15 05:01:48;;;;;;;5.20;2.13;;;9.00;99.90;;;;;;4952488;28;20681;-32
2023/10/15 05:04:14;;;;;;;4.60;1.60;;;9.00;99.90;;;;;;4938247;29;20292;-32
2023/10/15 05:06:40;;;;;;;5.43;1.93;;;9.10;99.90;;;;;;4930040;29;20210;-32
2023/10/15 05:09:20;;;;;;;5.60;2.17;;;9.10;99.90;;;;;;4936141;29;20189;-32
2023/10/15 05:11:49;;;;;;;4.40;1.60;;;9.10;99.90;;;;;;4938305;29;20199;-32
2023/10/15 05:14:17;;;;;;;5.17;1.93;;;9.10;99.90;;;;;;4930575;29;20186;-32
2023/10/15 05:16:46;;;;;;;4.73;2.27;;;9.10;99.90;;;;;;4955416;29;20268;-32
2023/10/15 05:19:19;;;;;;;6.50;2.03;;;9.20;99.90;;;;;;4937500;29;20200;-32
2023/10/15 05:21:49;;;;;;;5.00;2.37;;;9.10;99.90;;;;;;4938177;29;20205;-32
2023/10/15 05:24:18;;;;;;;3.63;1.70;;;9.20;99.90;;;;;;4937994;29;20272;-32
2023/10/15 05:26:50;;;;;;;5.23;1.70;;;9.10;99.90;;;;;;4938036;29;20284;-32
2023/10/15 05:29:17;;;;;;;3.63;1.77;;;9.20;99.90;;;;;;4938312;29;20241;-32
2023/10/15 05:31:43;;;;;;;8.10;1.83;;;9.20;99.90;;;;;;4938277;29;20195;-32
2023/10/15 05:34:09;;;;;;;4.03;1.70;;;9.30;99.90;;;;;;4954063;29;20196;-32
2023/10/15 05:36:37;;;;;;;4.20;1.57;;;9.30;99.90;;;;;;4943295;29;20201;-32
2023/10/15 05:39:08;;;;;;;4.43;1.67;;;9.30;99.90;;;;;;4926091;29;20189;-32
2023/10/15 05:41:37;;;;;;;5.10;1.70;;;9.30;99.90;;;;;;4937022;29;20217;-32
2023/10/15 05:44:03;;;;;;;8.10;1.90;;;9.20;99.90;;;;;;4937961;29;20271;-32
2023/10/15 05:46:29;;;;;;;3.63;1.50;;;9.30;99.90;;;;;;4931482;29;20241;-32
2023/10/15 05:48:55;;;;;;;2.43;1.50;;;9.30;99.90;;;;;;4938053;29;20256;-32
2023/10/15 05:51:21;;;;;;;3.37;1.60;;;9.30;99.90;;;;;;4937553;29;20208;-32
2023/10/15 05:53:47;;;;;;;3.87;1.70;;;9.30;99.90;;;;;;4937177;29;20193;-32
2023/10/15 05:56:13;;;;;;;4.27;1.67;;;9.30;99.90;;;;;;4937655;29;20235;-32
2023/10/15 05:58:39;;;;;;;3.63;1.80;;;9.30;99.90;;;;;;4937452;29;20193;-32
2023/10/15 06:01:05;;;;;;;4.37;1.80;;;9.30;99.90;;;;;;4952915;29;20205;-32
2023/10/15 06:03:32;;;;;;;4.07;1.83;;;9.30;99.90;;;;;;4961729;28;20193;-32
2023/10/15 06:05:58;;;;;;;3.60;1.87;;;9.30;99.90;;;;;;4933849;29;20221;-32
2023/10/15 06:08:25;;;;;;;3.33;1.77;;;9.30;99.90;;;;;;4916655;29;20279;-32
2023/10/15 06:10:51;;;;;;;2.97;1.53;;;9.30;99.90;;;;;;4949318;29;20189;-32
2023/10/15 06:13:17;;;;;;;3.60;2.13;;;9.30;99.90;;;;;;4932322;28;20186;-32
2023/10/15 06:15:43;;;;;;;4.53;3.03;;;9.30;99.90;;;;;;4923277;29;20205;-32
2023/10/15 06:18:09;;;;;;;5.17;3.73;;;9.30;99.90;;;;;;4946708;28;20190;-32
2023/10/15 06:20:35;;;;;;;6.73;3.17;;;9.30;99.90;;;;;;4959090;28;20256;-32
2023/10/15 06:23:04;;;;;;;5.30;3.57;;;9.30;99.90;;;;;;4916743;29;20189;-32
2023/10/15 06:25:30;;;;;;;5.67;3.33;;;9.30;99.90;;;;;;4918719;29;20688;-32
2023/10/15 06:27:56;;;;;;;3.60;2.50;;;9.30;99.90;;;;;;4930015;29;20181;-32
2023/10/15 06:30:22;;;;;;;5.13;1.80;;;9.40;99.90;;;;;;4920185;29;20185;-32
2023/10/15 06:32:54;;;;;;;3.73;1.93;;;9.40;99.90;;;;;;4914900;29;20208;-32
2023/10/15 06:35:25;;;;;;;5.87;2.07;;;9.40;99.90;;;;;;4916394;29;20212;-32
2023/10/15 06:37:55;;;;;;;6.57;1.50;;;9.40;99.90;;;;;;4924252;29;20186;-32
2023/10/15 06:40:21;;;;;;;1.90;1.40;;;9.40;99.90;;;;;;4929661;29;20185;-32
2023/10/15 06:42:47;;;;;;;5.07;2.00;;;9.40;99.90;;;;;;4908276;29;20201;-32
2023/10/15 06:45:19;;;;;;;2.73;1.40;;;9.40;99.90;;;;;;4924045;29;20189;-32
2023/10/15 06:47:51;;;;;;;3.10;1.57;;;9.50;99.90;;;;;;4923259;29;20185;-32
2023/10/15 06:50:19;;;;;;;4.83;2.10;;;9.50;99.90;;;;;;4951477;29;20342;-32
2023/10/15 06:52:46;;;;;;;2.33;1.73;;;9.50;99.90;;;;;;4936928;29;20173;-32
2023/10/15 06:55:13;;;;;;;3.37;1.80;;;9.50;99.90;;;;;;4930077;29;20197;-32
2023/10/15 06:57:39;;;;;;;4.23;1.63;;;9.50;99.90;;;;;;4927728;29;20178;-32
2023/10/15 07:00:10;;;;;;;5.23;1.90;;;9.50;99.90;;;;;;4934952;29;20655;-32
2023/10/15 07:02:36;;;;;;;8.47;1.97;;;9.50;99.90;;;;;;4931934;29;20233;-30
2023/10/15 07:05:06;;;;;;;4.00;1.93;;;9.50;99.90;;;;;;4933697;29;20174;-31
2023/10/15 07:07:35;;;;;;;3.13;1.83;;;9.60;99.90;;;;;;4938330;29;20197;-31
2023/10/15 07:10:06;;;;;;;4.67;2.00;;;9.60;99.90;;;;;;4938318;29;20654;-31
2023/10/15 07:12:32;;;;;;;3.17;1.80;;;9.60;99.90;;;;;;4936487;29;20193;-31
2023/10/15 07:14:58;;;;;;;3.50;1.63;;;9.60;99.90;;;;;;4925724;29;20181;-31
2023/10/15 07:17:24;;;;;;;6.10;2.03;;;9.60;99.90;;;;;;4928708;29;20207;-31
2023/10/15 07:19:50;;;;;;;3.13;1.60;;;9.70;99.90;;;;;;4936331;29;20217;-31
2023/10/15 07:22:16;;;;;;;3.43;1.60;;;9.70;99.90;;;;;;4935952;29;20232;-31
2023/10/15 07:24:42;;;;;;;3.03;1.80;;;9.70;99.90;;;;;;4936216;29;20178;-31
2023/10/15 07:27:08;;;;;;;2.10;1.57;;;9.70;99.90;;;;;;4935731;29;20193;-31
2023/10/15 07:29:34;;;;;;;4.70;1.80;;;9.80;99.90;;;;;;4936269;29;20185;-31
2023/10/15 07:32:00;;;;;;;2.77;1.40;;;9.80;99.90;;;;;;4930418;29;20186;-31
2023/10/15 07:34:29;;;;;;;3.93;1.60;;;9.80;99.90;;;;;;4950402;28;20185;-31
2023/10/15 07:36:57;;;;;;;4.03;2.10;;;9.90;99.90;;;;;;4935977;29;20208;-30
2023/10/15 07:39:25;;;;;;;2.93;1.60;;;9.90;99.90;;;;;;4929341;29;20194;-31
2023/10/15 07:41:51;;;;;;;4.43;1.90;;;9.90;99.90;;;;;;4928511;29;20205;-31
2023/10/15 07:44:18;;;;;;;2.60;1.50;;;10.00;99.90;;;;;;4920063;29;20246;-31
2023/10/15 07:46:45;;;;;;;2.87;1.60;;;10.00;99.90;;;;;;4911194;29;20201;-31
2023/10/15 07:49:12;;;;;;;2.03;1.50;;;10.00;99.90;;;;;;4931648;29;20181;-31
2023/10/15 07:51:41;;;;;;;4.30;1.43;;;10.00;99.90;;;;;;4936073;29;20209;-31
2023/10/15 07:54:07;;;;;;;4.27;1.70;;;10.10;99.90;;;;;;4932557;29;20197;-31
2023/10/15 07:56:34;;;;;;;5.83;2.10;;;10.10;99.90;;;;;;4928383;29;20209;-31
2023/10/15 07:59:08;;;;;;;4.10;1.90;;;10.20;99.90;;;;;;4935487;29;20185;-32
2023/10/15 08:01:36;;;;;;;3.00;1.60;;;10.20;99.90;;;;;;4935702;29;20765;-32
2023/10/15 08:04:06;;;;;;;5.20;1.80;;;10.20;99.90;;;;;;4924406;29;20178;-30
2023/10/15 08:06:34;;;;;;;1.60;1.40;;;10.20;99.90;;;;;;4930613;29;20217;-32
2023/10/15 08:09:00;;;;;;;3.87;1.63;;;10.20;99.90;;;;;;4935386;29;20186;-32
2023/10/15 08:11:28;;;;;;;2.10;1.20;;;10.20;99.90;;;;;;4935411;29;20193;-32
2023/10/15 08:13:54;;;;;;;3.67;1.67;;;10.20;99.90;;;;;;4928123;29;20247;-32
2023/10/15 08:16:20;;;;;;;3.73;1.60;;;10.20;99.90;;;;;;4925134;29;20205;-32
2023/10/15 08:18:47;;;;;;;3.20;1.57;;;10.20;99.90;;;;;;4951905;29;20193;-32
2023/10/15 08:21:17;;;;;;;1.80;1.20;;;10.20;99.90;;;;;;4934620;29;20205;-32
2023/10/15 08:23:45;;;;;;;5.80;5.30;;;10.20;99.90;;;;;;4932790;29;20278;-32
2023/10/15 08:26:11;;;;;;;4.13;3.73;;;10.20;99.90;;;;;;4932977;29;20212;-32
2023/10/15 08:28:37;;;;;;;2.20;1.70;;;10.30;99.90;;;;;;4931965;29;20182;-32
2023/10/15 08:31:03;;;;;;;1.73;1.40;;;10.30;99.90;;;;;;4917193;29;20182;-32
2023/10/15 08:33:29;;;;;;;2.80;1.80;;;10.40;99.90;;;;;;4931877;29;20186;-32
2023/10/15 08:35:55;;;;;;;1.60;1.40;;;10.50;99.90;;;;;;4934017;29;20197;-32
2023/10/15 08:38:22;;;;;;;2.27;1.23;;;10.80;99.90;;;;;;4930105;29;20181;-32
2023/10/15 08:40:50;;;;;;;3.47;1.70;;;10.90;99.90;;;;;;4930294;29;20210;-32
2023/10/15 08:43:21;;;;;;;4.43;1.40;;;10.90;99.90;;;;;;4934945;29;20192;-32
2023/10/15 08:45:48;;;;;;;4.00;1.73;;;10.90;99.90;;;;;;4917423;29;20207;-32
2023/10/15 08:48:16;;;;;;;2.50;1.30;;;10.80;99.90;;;;;;4930448;29;20182;-32
2023/10/15 08:50:43;;;;;;;3.03;1.50;;;11.00;99.90;;;;;;4927201;29;20194;-32
2023/10/15 08:53:11;;;;;;;4.03;1.60;;;11.10;99.90;;;;;;4926779;29;20184;-32
2023/10/15 08:55:38;;;;;;;3.03;1.47;;;11.20;99.90;;;;;;4928868;29;20201;-32
2023/10/15 08:58:06;;;;;;;3.30;1.30;;;11.40;99.90;;;;;;4950216;29;20200;-32
2023/10/15 09:00:33;;;;;;;6.07;1.57;;;11.50;99.90;;;;;;4933488;29;20235;-32
2023/10/15 09:03:03;;;;;;;6.07;1.70;;;11.70;99.90;;;;;;4929816;29;20184;-32
2023/10/15 09:05:33;;;;;;;2.13;1.20;;;11.80;99.90;;;;;;4923274;29;20308;-32
2023/10/15 09:08:10;;;;;;;3.30;1.43;;;12.00;99.90;;;;;;4923096;29;20183;-31
2023/10/15 09:10:41;;;;;;;3.63;1.40;;;12.10;99.90;;;;;;4925081;29;20192;-31
2023/10/15 09:13:19;;;;;;;2.07;1.00;;;12.10;99.90;;;;;;4923783;29;20196;-31
2023/10/15 09:15:47;;;;;;;3.80;1.10;;;11.90;99.90;;;;;;4907268;29;20355;-31
2023/10/15 09:18:16;;;;;;;4.40;1.30;;;11.90;99.90;;;;;;4930612;29;20190;-31
2023/10/15 09:20:45;;;;;;;2.40;1.40;;;11.70;99.90;;;;;;4924626;29;20206;-31
2023/10/15 09:23:11;;;;;;;4.47;1.20;;;11.60;99.90;;;;;;4918050;29;20188;-31
2023/10/15 09:25:38;;;;;;;4.47;1.50;;;11.40;99.90;;;;;;4919026;29;20203;-32
2023/10/15 09:28:05;;;;;;;2.83;1.10;;;11.20;99.90;;;;;;4919543;29;20192;-32
2023/10/15 09:30:31;;;;;;;4.13;1.30;;;11.10;99.90;;;;;;4926886;29;20195;-31
2023/10/15 09:32:59;;;;;;;4.47;1.20;;;11.10;99.90;;;;;;4944729;29;20183;-31
2023/10/15 09:35:26;;;;;;;1.80;1.10;;;10.90;99.90;;;;;;4927974;29;20207;-31
2023/10/15 09:37:54;;;;;;;2.70;1.23;;;10.90;99.90;;;;;;4927574;29;20222;-31
2023/10/15 09:40:35;;;;;;;2.07;0.90;;;10.90;99.90;;;;;;4959374;28;20194;-31
2023/10/15 09:43:01;;;;;;;4.63;1.27;;;10.80;99.90;;;;;;4928089;29;20182;-31
2023/10/15 09:45:30;;;;;;;4.50;1.40;;;10.90;99.90;;;;;;4939417;29;20286;-32
2023/10/15 09:47:59;;;;;;;2.77;1.23;;;11.10;99.90;;;;;;4929313;28;20182;-31
2023/10/15 09:50:27;;;;;;;4.73;1.30;;;11.40;99.90;;;;;;4923003;29;20285;-31
2023/10/15 09:52:57;;;;;;;3.97;1.40;;;11.70;99.90;;;;;;4932227;29;20184;-32
2023/10/15 09:55:28;;;;;;;2.83;1.20;;;11.80;99.90;;;;;;4927617;29;20203;-31
2023/10/15 09:57:56;;;;;;;3.87;1.60;;;12.10;99.90;;;;;;4918781;29;20191;-31
2023/10/15 10:03:57;;;;;;;5.23;1.73;;;12.10;99.90;;;;;;4959485;28;20192;-31
2023/10/15 10:06:47;;;;;;;2.23;1.20;;;12.00;99.90;;;;;;4926273;29;20268;-32
2023/10/15 10:09:53;;;;;;;4.90;1.33;;;11.70;99.90;;;;;;4928092;29;20212;-32
2023/10/15 10:12:59;;;;;;;3.00;1.10;;;11.50;99.90;;;;;;4905948;29;20184;-32
2023/10/15 10:15:30;;;;;;;2.80;1.40;;;11.20;99.90;;;;;;4941720;29;20201;-32
2023/10/15 10:17:59;;;;;;;4.27;1.43;;;11.00;99.90;;;;;;4942350;29;20659;-32
2023/10/15 10:20:32;;;;;;;2.57;1.20;;;11.00;99.90;;;;;;4928883;29;20331;-32
2023/10/15 10:23:03;;;;;;;3.07;1.20;;;10.90;99.90;;;;;;4941711;29;20178;-32
2023/10/15 10:25:31;;;;;;;5.20;1.70;;;10.90;99.90;;;;;;4927511;29;20698;-33
2023/10/15 10:28:08;;;;;;;5.07;2.10;;;10.90;99.90;;;;;;4928282;29;20285;-32
2023/10/15 10:30:36;;;;;;;3.30;1.40;;;10.80;99.90;;;;;;4943237;29;20286;-32
2023/10/15 10:33:02;;;;;;;2.00;1.30;;;10.90;99.90;;;;;;4922549;29;20195;-32
2023/10/15 10:35:40;;;;;;;2.97;1.10;;;10.80;99.90;;;;;;4925256;29;20219;-32
2023/10/15 10:38:10;;;;;;;5.83;1.50;;;10.70;99.90;;;;;;4926547;29;20310;-32
2023/10/15 10:40:54;;;;;;;1.90;0.90;;;10.80;99.90;;;;;;4929362;29;20209;-32
2023/10/15 10:43:25;;;;;;;3.83;1.47;;;10.90;99.90;;;;;;4943906;28;20181;-32
2023/10/15 10:45:56;;;;;;;4.43;1.10;;;11.10;99.90;;;;;;4926509;29;20215;-32
2023/10/15 10:48:24;;;;;;;4.13;1.63;;;11.30;99.90;;;;;;4930811;29;20189;-31
2023/10/15 10:51:21;;;;;;;3.83;1.40;;;11.50;99.90;;;;;;4929174;29;20194;-31
2023/10/15 10:53:56;;;;;;;4.23;1.30;;;11.80;99.90;;;;;;4926952;29;20231;-31
2023/10/15 10:56:42;;;;;;;1.83;1.30;;;12.00;99.90;;;;;;4942376;29;20214;-31
2023/10/15 10:59:11;;;;;;;4.43;1.50;;;12.10;99.90;;;;;;4908288;29;20294;-31
2023/10/15 11:01:54;;;;;;;4.23;1.50;;;12.20;99.90;;;;;;4939365;29;20221;-31
2023/10/15 11:04:25;;;;;;;6.33;1.60;;;12.10;99.90;;;;;;4943074;29;20188;-31
2023/10/15 11:06:50;;;;;;;3.03;1.20;;;12.10;99.90;;;;;;4927093;29;20211;-31
2023/10/15 11:09:19;;;;;;;2.97;1.27;;;12.00;99.90;;;;;;4925826;29;20185;-31
2023/10/15 11:11:51;;;;;;;1.80;0.90;;;12.00;99.90;;;;;;4958100;28;20189;-31
2023/10/15 11:14:23;;;;;;;1.60;0.90;;;11.90;99.90;;;;;;4926238;29;20185;-31
2023/10/15 11:16:50;;;;;;;2.87;1.20;;;12.00;99.90;;;;;;4923459;29;20303;-32
2023/10/15 11:19:17;;;;;;;1.90;1.00;;;12.20;99.90;;;;;;4926219;29;20240;-30
2023/10/15 11:21:44;;;;;;;1.67;0.90;;;12.40;99.90;;;;;;4924882;29;20220;-31
2023/10/15 11:24:11;;;;;;;3.47;1.10;;;12.60;99.90;;;;;;4925473;29;20189;-31
2023/10/15 11:26:46;;;;;;;2.23;1.10;;;12.80;99.90;;;;;;4938866;29;20204;-31
2023/10/15 11:29:16;;;;;;;2.27;1.07;;;12.90;99.90;;;;;;4901387;29;20196;-31
2023/10/15 11:31:44;;;;;;;2.70;1.23;;;13.00;99.90;;;;;;4915887;29;20249;-31
2023/10/15 11:34:25;;;;;;;1.60;0.90;;;13.10;99.90;;;;;;4919830;29;20273;-32
2023/10/15 11:36:55;;;;;;;2.20;0.97;;;13.20;99.90;;;;;;4915354;29;20240;-31
2023/10/15 11:39:38;;;;;;;2.53;1.27;;;13.30;99.90;;;;;;4916458;29;20196;-31
2023/10/15 11:42:08;;;;;;;1.70;1.10;;;13.30;99.90;;;;;;4917678;29;20202;-31
2023/10/15 11:44:38;;;;;;;2.93;1.20;;;13.40;99.90;;;;;;4919967;29;20182;-31
2023/10/15 11:47:49;;;;;;;3.80;1.10;;;13.60;99.90;;;;;;4919525;29;20257;-31
2023/10/15 11:49:54;;;;;;;2.80;1.00;;;13.70;99.90;;;;;;4928699;29;20193;-31
2023/10/15 11:52:22;;;;;;;2.63;1.20;;;13.80;99.90;;;;;;4915493;29;20182;-32
2023/10/15 11:54:49;;;;;;;3.00;1.23;;;13.80;99.90;;;;;;4919776;29;20186;-31
2023/10/15 11:57:25;;;;;;;2.50;1.30;;;14.10;99.90;;;;;;4957163;28;20225;-31
2023/10/15 11:59:52;;;;;;;2.00;1.00;;;14.20;99.90;;;;;;4911856;29;20178;-31
2023/10/15 12:02:18;;;;;;;2.87;1.20;;;14.30;99.90;;;;;;4915959;29;20198;-31
2023/10/15 12:04:51;;;;;;;2.00;0.90;;;14.30;99.90;;;;;;4944025;28;20197;-31
2023/10/15 12:07:21;;;;;;;1.87;0.93;;;14.30;99.90;;;;;;4903663;29;20311;-31
2023/10/15 12:09:48;;;;;;;2.27;1.20;;;14.10;99.90;;;;;;4901223;29;20215;-31
2023/10/15 12:12:14;;;;;;;3.37;1.30;;;13.60;99.90;;;;;;4929144;29;20182;-31
2023/10/15 12:14:40;;;;;;;1.63;0.80;;;13.30;99.90;;;;;;4927644;29;20220;-32
2023/10/15 12:17:06;;;;;;;2.53;1.30;;;12.70;99.90;;;;;;4932772;29;20253;-31
2023/10/15 12:19:32;;;;;;;1.83;0.90;;;12.20;99.90;;;;;;4935860;29;20239;-30
2023/10/15 12:21:58;;;;;;;2.50;1.00;;;11.70;99.90;;;;;;4918823;29;20218;-31
2023/10/15 12:24:25;;;;;;;1.90;1.07;;;11.40;99.90;;;;;;4933829;29;20203;-31
2023/10/15 12:26:51;;;;;;;2.23;1.17;;;11.30;99.90;;;;;;4935009;29;20239;-31
2023/10/15 12:29:17;;;;;;;1.77;1.10;;;11.30;99.90;;;;;;4936879;29;20206;-30
2023/10/15 12:31:43;;;;;;;1.83;1.03;;;11.30;99.90;;;;;;4922950;29;20199;-31
2023/10/15 12:34:12;;;;;;;1.40;1.03;;;11.30;99.90;;;;;;4956161;29;20257;-29
2023/10/15 12:36:39;;;;;;;2.17;1.03;;;11.30;99.90;;;;;;4928048;29;20222;-33
2023/10/15 12:39:08;;;;;;;2.83;1.10;;;11.40;99.90;;;;;;4937122;29;20218;-31
2023/10/15 12:41:38;;;;;;;2.13;1.30;;;11.60;99.90;;;;;;4932434;29;20212;-31
2023/10/15 12:44:11;;;;;;;1.30;1.00;;;11.90;99.90;;;;;;4928821;29;20317;-31
2023/10/15 12:46:37;;;;;;;2.60;1.00;;;12.30;99.90;;;;;;4916945;29;20252;-30
2023/10/15 12:49:03;;;;;;;3.87;1.30;;;12.60;99.90;;;;;;4956450;29;20177;-31
2023/10/15 12:51:32;;;;;;;2.37;1.13;;;12.90;99.90;;;;;;4938802;29;20260;-31
2023/10/15 12:53:59;;;;;;;1.30;1.10;;;13.20;99.90;;;;;;4935807;29;20182;-30
2023/10/15 12:56:25;;;;;;;1.93;1.10;;;13.30;99.90;;;;;;4939182;29;20237;-31
2023/10/15 12:58:51;;;;;;;2.03;1.03;;;13.30;99.90;;;;;;4954756;29;20185;-31
2023/10/15 13:01:20;;;;;;;2.60;1.20;;;13.20;99.90;;;;;;4938951;29;20357;-31
2023/10/15 13:03:49;;;;;;;2.43;1.20;;;13.10;99.90;;;;;;4954423;28;20177;-30
2023/10/15 13:06:16;;;;;;;3.60;1.30;;;13.10;99.90;;;;;;4937198;29;20220;-31
2023/10/15 13:08:46;;;;;;;2.03;1.13;;;13.00;99.90;;;;;;4936245;29;21320;-32
2023/10/15 13:11:12;;;;;;;2.37;1.60;;;12.90;99.90;;;;;;4920008;29;20186;-31
2023/10/15 13:13:38;;;;;;;1.93;1.40;;;12.90;99.90;;;;;;4924044;29;20201;-32
2023/10/15 13:16:04;;;;;;;2.60;1.13;;;13.00;99.90;;;;;;4921820;29;20229;-32
2023/10/15 13:18:37;;;;;;;3.67;1.57;;;13.10;99.90;;;;;;4920434;29;20222;-32
2023/10/15 13:21:02;;;;;;;2.13;1.07;;;13.20;99.90;;;;;;4919457;29;20209;-32
2023/10/15 13:23:29;;;;;;;2.83;1.00;;;13.40;99.90;;;;;;4926487;29;20186;-32
2023/10/15 13:25:56;;;;;;;3.37;1.10;;;13.50;99.90;;;;;;4928431;29;20297;-32
2023/10/15 13:28:22;;;;;;;1.80;0.80;;;13.40;99.90;;;;;;4920326;29;20182;-31